createdAt,value
2022-08-22T00:00:52.418Z,15.39
2022-08-22T00:02:59.185Z,15.27
2022-08-22T00:03:02.382Z,15.82
2022-08-22T00:03:11.173Z,15.26
2022-08-22T00:03:42.988Z,15.28
2022-08-22T00:06:20.650Z,15.28
2022-08-22T00:09:03.278Z,15.31
2022-08-22T00:11:44.706Z,15.36
2022-08-22T00:14:18.988Z,15.34
2022-08-22T00:16:57.618Z,15.30
2022-08-22T00:19:35.351Z,15.33
2022-08-22T00:22:11.371Z,15.32
2022-08-22T00:24:54.666Z,15.32
2022-08-22T00:27:29.132Z,15.31
2022-08-22T00:30:05.095Z,15.31
2022-08-22T00:32:44.316Z,15.28
2022-08-22T00:35:22.083Z,15.27
2022-08-22T00:38:04.243Z,15.29
2022-08-22T00:40:54.883Z,15.27
2022-08-22T00:43:58.883Z,15.25
2022-08-22T00:47:02.373Z,15.29
2022-08-22T00:50:24.543Z,15.26
2022-08-22T00:53:27.473Z,15.30
2022-08-22T00:56:16.961Z,15.31
2022-08-22T00:59:23.190Z,15.33
2022-08-22T01:02:06.575Z,15.35
2022-08-22T01:05:03.126Z,15.33
2022-08-22T01:07:55.280Z,15.31
2022-08-22T01:10:40.086Z,15.40
2022-08-22T01:13:39.336Z,15.49
2022-08-22T01:16:27.794Z,15.45
2022-08-22T01:19:37.432Z,15.37
2022-08-22T01:22:52.438Z,15.32
2022-08-22T01:26:03.713Z,15.37
2022-08-22T01:29:04.562Z,15.35
2022-08-22T01:32:08.393Z,15.31
2022-08-22T01:35:04.235Z,15.28
2022-08-22T01:38:08.774Z,15.26
2022-08-22T01:41:02.434Z,15.24
2022-08-22T01:44:01.276Z,15.31
2022-08-22T01:46:50.224Z,15.30
2022-08-22T01:49:28.284Z,15.34
2022-08-22T01:52:07.614Z,15.29
2022-08-22T01:54:46.341Z,15.26
2022-08-22T01:57:17.543Z,15.26
2022-08-22T01:59:50.922Z,15.24
2022-08-22T02:02:48.233Z,15.25
2022-08-22T02:05:28.356Z,15.27
2022-08-22T02:08:05.225Z,15.26
2022-08-22T02:10:54.136Z,15.22
2022-08-22T02:13:54.535Z,15.15
2022-08-22T02:16:34.553Z,15.18
2022-08-22T02:19:23.133Z,15.14
2022-08-22T02:22:00.134Z,15.14
2022-08-22T02:24:46.454Z,15.14
2022-08-22T02:27:27.170Z,15.10
2022-08-22T02:30:07.798Z,15.07
2022-08-22T02:32:47.545Z,15.05
2022-08-22T02:35:27.884Z,15.06
2022-08-22T02:38:09.594Z,15.11
2022-08-22T02:40:48.367Z,15.14
2022-08-22T02:43:25.135Z,15.14
2022-08-22T02:45:59.955Z,15.15
2022-08-22T02:48:40.499Z,15.11
2022-08-22T02:51:19.115Z,15.11
2022-08-22T02:53:58.285Z,15.05
2022-08-22T02:56:36.047Z,15.01
2022-08-22T02:59:17.618Z,15.00
2022-08-22T03:01:49.135Z,14.99
2022-08-22T03:04:48.675Z,14.92
2022-08-22T03:07:29.247Z,14.89
2022-08-22T03:10:12.667Z,14.97
2022-08-22T03:12:57.534Z,14.97
2022-08-22T03:15:51.145Z,14.88
2022-08-22T03:18:29.293Z,14.88
2022-08-22T03:21:23.116Z,14.88
2022-08-22T03:23:58.095Z,14.92
2022-08-22T03:26:31.984Z,14.91
2022-08-22T03:29:10.703Z,14.91
2022-08-22T03:32:01.124Z,14.95
2022-08-22T03:34:31.595Z,14.91
2022-08-22T03:37:17.803Z,14.88
2022-08-22T03:39:59.263Z,14.83
2022-08-22T03:43:00.563Z,14.82
2022-08-22T03:46:09.283Z,14.83
2022-08-22T03:49:31.114Z,14.80
2022-08-22T03:52:10.007Z,14.80
2022-08-22T03:55:05.575Z,14.81
2022-08-22T03:58:17.160Z,14.81
2022-08-22T04:01:16.388Z,14.85
2022-08-22T04:04:24.996Z,14.90
2022-08-22T04:07:33.981Z,14.93
2022-08-22T04:10:40.403Z,14.93
2022-08-22T04:13:50.709Z,14.91
2022-08-22T04:17:02.750Z,14.92
2022-08-22T04:19:56.433Z,14.89
2022-08-22T04:22:48.549Z,14.90
2022-08-22T04:25:24.265Z,14.95
2022-08-22T04:28:04.177Z,14.96
2022-08-22T04:30:39.999Z,14.95
2022-08-22T04:33:19.730Z,14.94
2022-08-22T04:36:02.272Z,15.01
2022-08-22T04:38:41.271Z,15.05
2022-08-22T04:41:15.432Z,15.07
2022-08-22T04:43:53.459Z,15.08
2022-08-22T04:46:33.583Z,15.16
2022-08-22T04:49:14.970Z,15.22
2022-08-22T04:51:53.880Z,15.24
2022-08-22T04:54:47.438Z,15.37
2022-08-22T04:57:28.170Z,15.43
2022-08-22T05:00:02.099Z,15.45
2022-08-22T05:02:32.171Z,15.54
2022-08-22T05:05:13.439Z,15.66
2022-08-22T05:07:47.548Z,15.81
2022-08-22T05:10:22.928Z,15.81
2022-08-22T05:12:57.150Z,15.88
2022-08-22T05:15:32.540Z,15.85
2022-08-22T05:18:08.670Z,15.89
2022-08-22T05:20:42.049Z,15.84
2022-08-22T05:23:19.798Z,15.92
2022-08-22T05:25:54.880Z,16.04
2022-08-22T05:28:35.724Z,16.20
2022-08-22T05:31:09.721Z,16.20
2022-08-22T05:33:45.221Z,16.25
2022-08-22T05:36:21.798Z,16.32
2022-08-22T05:38:57.681Z,16.38
2022-08-22T05:41:32.178Z,16.44
2022-08-22T05:44:03.598Z,16.58
2022-08-22T05:46:41.370Z,16.62
2022-08-22T05:49:19.501Z,16.72
2022-08-22T05:52:06.651Z,16.83
2022-08-22T05:54:50.488Z,16.93
2022-08-22T05:57:29.901Z,17.02
2022-08-22T06:00:07.892Z,17.09
2022-08-22T06:02:56.842Z,17.22
2022-08-22T06:05:29.919Z,17.40
2022-08-22T06:08:06.034Z,17.65
2022-08-22T06:10:44.574Z,17.92
2022-08-22T06:13:25.605Z,17.94
2022-08-22T06:16:04.767Z,18.09
2022-08-22T06:18:37.295Z,18.27
2022-08-22T06:21:11.596Z,18.38
2022-08-22T06:23:47.147Z,18.53
2022-08-22T06:26:21.406Z,18.65
2022-08-22T06:28:55.897Z,18.85
2022-08-22T06:31:31.294Z,19.06
2022-08-22T06:34:07.084Z,19.35
2022-08-22T06:36:40.163Z,19.80
2022-08-22T06:39:18.884Z,19.96
2022-08-22T06:41:57.365Z,20.15
2022-08-22T06:44:32.114Z,20.51
2022-08-22T06:47:05.356Z,20.97
2022-08-22T06:49:39.246Z,21.34
2022-08-22T06:52:13.138Z,21.27
2022-08-22T06:54:47.959Z,20.88
2022-08-22T06:57:32.071Z,20.61
2022-08-22T07:00:07.901Z,20.28
2022-08-22T07:02:43.190Z,20.44
2022-08-22T07:05:20.379Z,20.52
2022-08-22T07:07:51.589Z,20.40
2022-08-22T07:10:24.801Z,20.64
2022-08-22T07:12:59.112Z,20.72
2022-08-22T07:15:36.851Z,20.72
2022-08-22T07:18:11.550Z,20.65
2022-08-22T07:20:46.775Z,20.73
2022-08-22T07:23:27.110Z,20.83
2022-08-22T07:26:04.617Z,20.86
2022-08-22T07:28:57.899Z,20.86
2022-08-22T07:31:39.541Z,21.14
2022-08-22T07:34:29.654Z,21.55
2022-08-22T07:37:04.103Z,21.45
2022-08-22T07:39:40.251Z,21.24
2022-08-22T07:42:17.164Z,21.34
2022-08-22T07:45:04.725Z,20.94
2022-08-22T07:47:52.535Z,20.81
2022-08-22T07:50:28.277Z,20.76
2022-08-22T07:53:08.260Z,20.94
2022-08-22T07:55:49.273Z,20.94
2022-08-22T07:58:23.397Z,20.99
2022-08-22T08:00:56.120Z,21.07
2022-08-22T08:03:30.307Z,21.18
2022-08-22T08:06:03.459Z,21.28
2022-08-22T08:08:36.921Z,21.18
2022-08-22T08:11:11.029Z,21.09
2022-08-22T08:13:45.499Z,21.24
2022-08-22T08:16:23.750Z,21.34
2022-08-22T08:18:57.088Z,21.20
2022-08-22T08:21:35.638Z,21.31
2022-08-22T08:24:09.770Z,21.28
2022-08-22T08:27:04.458Z,21.53
2022-08-22T08:29:34.390Z,21.71
2022-08-22T08:32:09.898Z,21.52
2022-08-22T08:34:41.130Z,21.44
2022-08-22T08:37:20.649Z,21.41
2022-08-22T08:39:53.427Z,21.37
2022-08-22T08:43:29.919Z,21.47
2022-08-22T08:46:36.607Z,21.58
2022-08-22T08:49:33.737Z,21.89
2022-08-22T08:52:31.777Z,22.18
2022-08-22T08:55:21.890Z,22.13
2022-08-22T08:58:11.182Z,22.37
2022-08-22T09:00:56.981Z,22.48
2022-08-22T09:04:14.984Z,22.79
2022-08-22T09:07:19.079Z,22.76
2022-08-22T09:10:10.245Z,22.73
2022-08-22T09:13:00.553Z,22.50
2022-08-22T09:16:09.230Z,22.41
2022-08-22T09:19:14.519Z,22.41
2022-08-22T09:22:19.951Z,22.24
2022-08-22T09:25:17.428Z,22.11
2022-08-22T09:27:53.973Z,22.11
2022-08-22T09:33:24.593Z,21.99
2022-08-22T09:36:03.369Z,21.91
2022-08-22T09:38:56.728Z,21.92
2022-08-22T09:40:16.203Z,22.01
2022-08-22T09:41:39.298Z,21.86
2022-08-22T09:44:19.701Z,21.97
2022-08-22T09:47:06.149Z,21.81
2022-08-22T09:49:58.361Z,21.88
2022-08-22T09:52:48.878Z,21.84
2022-08-22T09:55:44.318Z,21.84
2022-08-22T09:58:23.870Z,21.93
2022-08-22T10:01:23.901Z,21.93
2022-08-22T10:04:38.258Z,22.05
2022-08-22T10:07:31.027Z,22.19
2022-08-22T10:10:15.201Z,22.27
2022-08-22T10:12:56.620Z,22.24
2022-08-22T10:15:37.749Z,22.24
2022-08-22T10:18:24.931Z,22.27
2022-08-22T10:21:13.271Z,22.20
2022-08-22T10:23:53.367Z,22.30
2022-08-22T10:26:38.509Z,22.46
2022-08-22T10:29:34.292Z,22.30
2022-08-22T10:32:16.714Z,22.34
2022-08-22T10:34:51.192Z,22.35
2022-08-22T10:37:33.904Z,22.39
2022-08-22T10:40:10.008Z,22.63
2022-08-22T10:42:48.078Z,22.42
2022-08-22T10:45:36.159Z,22.37
2022-08-22T10:48:40.114Z,22.30
2022-08-22T10:51:21.662Z,22.42
2022-08-22T10:54:26.832Z,22.35
2022-08-22T10:57:07.706Z,22.33
2022-08-22T10:59:45.582Z,22.09
2022-08-22T11:02:53.160Z,22.18
2022-08-22T11:05:43.034Z,22.30
2022-08-22T11:08:45.961Z,22.16
2022-08-22T11:11:42.669Z,22.10
2022-08-22T11:14:38.857Z,22.01
2022-08-22T11:17:34.579Z,21.94
2022-08-22T11:20:29.938Z,22.00
2022-08-22T11:23:19.117Z,22.00
2022-08-22T11:25:58.703Z,21.84
2022-08-22T11:29:13.189Z,21.90
2022-08-22T11:31:54.859Z,22.02
2022-08-22T11:34:46.250Z,22.13
2022-08-22T11:37:43.499Z,22.09
2022-08-22T11:40:28.672Z,22.34
2022-08-22T11:43:18.185Z,22.21
2022-08-22T11:45:51.319Z,22.10
2022-08-22T11:48:28.915Z,22.09
2022-08-22T11:51:13.656Z,22.10
2022-08-22T11:53:55.739Z,22.14
2022-08-22T11:56:33.269Z,22.13
2022-08-22T11:59:09.170Z,22.17
2022-08-22T12:01:44.333Z,22.03
2022-08-22T12:04:21.731Z,22.02
2022-08-22T12:07:02.513Z,22.15
2022-08-22T12:09:47.756Z,22.18
2022-08-22T12:12:29.512Z,22.14
2022-08-22T12:15:08.875Z,22.21
2022-08-22T12:18:22.851Z,22.19
2022-08-22T12:21:52.241Z,22.23
2022-08-22T12:24:49.820Z,22.29
2022-08-22T12:27:38.890Z,22.32
2022-08-22T12:30:22.610Z,22.46
2022-08-22T12:33:22.920Z,22.47
2022-08-22T12:36:21.752Z,22.39
2022-08-22T12:39:19.592Z,22.17
2022-08-22T12:42:12.441Z,22.20
2022-08-22T12:44:56.270Z,22.23
2022-08-22T12:47:42.266Z,22.16
2022-08-22T12:50:31.561Z,22.14
2022-08-22T12:53:34.777Z,22.16
2022-08-22T12:56:33.042Z,22.09
2022-08-22T12:59:24.015Z,22.07
2022-08-22T13:02:01.049Z,21.93
2022-08-22T13:04:35.092Z,22.00
2022-08-22T13:07:24.830Z,22.10
2022-08-22T13:09:59.292Z,22.08
2022-08-22T13:12:38.073Z,22.12
2022-08-22T13:15:29.902Z,22.25
2022-08-22T13:18:19.178Z,22.25
2022-08-22T13:20:56.890Z,22.16
2022-08-22T13:23:31.971Z,22.02
2022-08-22T13:26:16.397Z,21.91
2022-08-22T13:32:02.279Z,21.96
2022-08-22T13:34:43.535Z,21.96
2022-08-22T13:37:20.286Z,22.03
2022-08-22T13:40:01.227Z,21.93
2022-08-22T13:42:35.232Z,21.78
2022-08-22T13:45:17.412Z,21.74
2022-08-22T13:47:57.251Z,21.77
2022-08-22T13:50:35.864Z,21.61
2022-08-22T13:53:32.356Z,21.59
2022-08-22T13:56:15.327Z,21.66
2022-08-22T13:58:49.926Z,21.63
2022-08-22T14:01:46.014Z,21.61
2022-08-22T14:04:32.175Z,21.54
2022-08-22T14:07:25.642Z,21.56
2022-08-22T14:10:02.608Z,21.57
2022-08-22T14:12:51.100Z,21.53
2022-08-22T14:15:26.780Z,21.34
2022-08-22T14:18:11.225Z,21.33
2022-08-22T14:20:45.580Z,21.30
2022-08-22T14:23:27.091Z,21.23
2022-08-22T14:26:06.173Z,21.25
2022-08-22T14:28:45.945Z,21.25
2022-08-22T14:31:25.562Z,21.14
2022-08-22T14:34:02.452Z,21.17
2022-08-22T14:36:51.671Z,21.15
2022-08-22T14:39:31.299Z,21.16
2022-08-22T14:42:13.942Z,21.13
2022-08-22T14:45:02.182Z,21.06
2022-08-22T14:47:55.492Z,21.01
2022-08-22T14:50:43.762Z,20.98
2022-08-22T14:53:26.670Z,20.99
2022-08-22T14:56:03.729Z,20.89
2022-08-22T14:58:38.294Z,20.87
2022-08-22T15:01:15.280Z,20.92
2022-08-22T15:03:53.109Z,20.91
2022-08-22T15:06:37.117Z,20.91
2022-08-22T15:09:16.500Z,20.84
2022-08-22T15:11:50.839Z,20.75
2022-08-22T15:14:26.960Z,20.79
2022-08-22T15:16:59.858Z,20.72
2022-08-22T15:19:41.052Z,20.71
2022-08-22T15:22:18.507Z,20.77
2022-08-22T15:24:58.497Z,20.76
2022-08-22T15:27:30.398Z,20.76
2022-08-22T15:30:03.867Z,20.77
2022-08-22T15:32:42.044Z,20.76
2022-08-22T15:35:16.199Z,20.72
2022-08-22T15:38:01.563Z,20.67
2022-08-22T15:40:41.979Z,20.71
2022-08-22T15:43:23.787Z,20.69
2022-08-22T15:46:17.879Z,20.62
2022-08-22T15:49:00.844Z,20.66
2022-08-22T15:51:43.129Z,20.64
2022-08-22T15:54:24.761Z,20.66
2022-08-22T15:57:20.685Z,20.62
2022-08-22T15:59:59.009Z,20.56
2022-08-22T16:02:35.243Z,20.50
2022-08-22T16:05:24.197Z,20.43
2022-08-22T16:08:05.560Z,20.47
2022-08-22T16:10:41.927Z,20.47
2022-08-22T16:13:34.019Z,20.52
2022-08-22T16:16:08.536Z,20.44
2022-08-22T16:19:16.200Z,20.48
2022-08-22T16:22:14.760Z,20.48
2022-08-22T16:25:10.984Z,20.49
2022-08-22T16:27:58.957Z,20.37
2022-08-22T16:30:37.908Z,20.38
2022-08-22T16:33:17.755Z,20.33
2022-08-22T16:36:25.600Z,20.35
2022-08-22T16:38:58.814Z,20.31
2022-08-22T16:41:36.009Z,20.31
2022-08-22T16:44:40.787Z,20.23
2022-08-22T16:47:16.341Z,20.23
2022-08-22T16:50:02.299Z,20.18
2022-08-22T16:52:59.006Z,20.21
2022-08-22T16:55:48.459Z,20.19
2022-08-22T16:59:23.498Z,20.14
2022-08-22T17:02:20.059Z,20.15
2022-08-22T17:05:03.900Z,20.16
2022-08-22T17:07:49.548Z,20.07
2022-08-22T17:10:40.427Z,20.02
2022-08-22T17:13:26.568Z,20.05
2022-08-22T17:16:13.766Z,20.06
2022-08-22T17:19:12.588Z,19.95
2022-08-22T17:21:53.737Z,19.97
2022-08-22T17:24:33.975Z,19.98
2022-08-22T17:27:13.507Z,19.93
2022-08-22T17:29:55.689Z,19.90
2022-08-22T17:32:43.339Z,19.88
2022-08-22T17:35:26.569Z,19.90
2022-08-22T17:38:09.841Z,19.85
2022-08-22T17:40:53.478Z,19.83
2022-08-22T17:43:50.504Z,19.83
2022-08-22T17:46:34.610Z,19.85
2022-08-22T17:49:16.857Z,19.76
2022-08-22T17:51:55.738Z,19.84
2022-08-22T17:54:35.381Z,19.74
2022-08-22T17:57:14.408Z,19.70
2022-08-22T17:59:52.492Z,19.66
2022-08-22T18:02:29.689Z,19.66
2022-08-22T18:05:08.659Z,19.66
2022-08-22T18:07:53.953Z,19.55
2022-08-22T18:10:39.400Z,19.54
2022-08-22T18:13:14.967Z,19.51
2022-08-22T18:15:53.130Z,19.38
2022-08-22T18:18:31.562Z,19.38
2022-08-22T18:21:07.772Z,19.29
2022-08-22T18:23:46.197Z,19.22
2022-08-22T18:26:29.198Z,19.15
2022-08-22T18:29:15.889Z,19.26
2022-08-22T18:31:53.299Z,19.25
2022-08-22T18:34:31.798Z,19.14
2022-08-22T18:37:07.469Z,19.08
2022-08-22T18:39:48.978Z,19.07
2022-08-22T18:42:25.720Z,18.99
2022-08-22T18:44:56.240Z,18.88
2022-08-22T18:47:32.937Z,18.72
2022-08-22T18:50:25.867Z,18.74
2022-08-22T18:52:57.809Z,18.78
2022-08-22T18:55:52.151Z,18.80
2022-08-22T18:58:51.358Z,18.79
2022-08-22T19:01:51.191Z,18.80
2022-08-22T19:04:56.259Z,18.75
2022-08-22T19:07:44.888Z,18.67
2022-08-22T19:10:38.848Z,18.68
2022-08-22T19:13:56.120Z,18.62
2022-08-22T19:16:59.338Z,18.62
2022-08-22T19:20:01.799Z,18.57
2022-08-22T19:22:36.051Z,18.62
2022-08-22T19:25:27.330Z,18.62
2022-08-22T19:28:36.646Z,18.70
2022-08-22T19:31:43.288Z,18.62
2022-08-22T19:34:46.784Z,18.59
2022-08-22T19:37:33.470Z,18.62
2022-08-22T19:40:06.983Z,18.65
2022-08-22T19:42:40.854Z,18.56
2022-08-22T19:45:29.466Z,18.51
2022-08-22T19:48:13.634Z,18.39
2022-08-22T19:50:46.920Z,18.43
2022-08-22T19:53:36.101Z,18.38
2022-08-22T19:56:23.629Z,18.35
2022-08-22T19:59:09.026Z,18.36
2022-08-22T20:01:51.961Z,18.37
2022-08-22T20:04:48.497Z,18.37
2022-08-22T20:07:33.081Z,18.35
2022-08-22T20:10:18.730Z,18.28
2022-08-22T20:13:04.500Z,18.15
2022-08-22T20:15:57.349Z,18.04
2022-08-22T20:19:09.450Z,18.02
2022-08-22T20:21:49.863Z,18.19
2022-08-22T20:24:27.021Z,18.25
2022-08-22T20:27:15.885Z,18.17
2022-08-22T20:29:53.292Z,18.05
2022-08-22T20:32:26.391Z,17.99
2022-08-22T20:34:59.711Z,18.09
2022-08-22T20:38:04.857Z,18.17
2022-08-22T20:40:56.526Z,18.10
2022-08-22T20:43:38.011Z,18.09
2022-08-22T20:46:22.409Z,18.16
2022-08-22T20:48:57.805Z,18.16
2022-08-22T20:51:30.742Z,18.12
2022-08-22T20:54:10.132Z,18.04
2022-08-22T20:56:53.474Z,18.13
2022-08-22T20:59:30.015Z,18.10
2022-08-22T21:02:11.175Z,18.20
2022-08-22T21:04:50.856Z,18.24
2022-08-22T21:07:27.075Z,18.31
2022-08-22T21:10:23.470Z,18.32
2022-08-22T21:13:05.899Z,18.35
2022-08-22T21:15:38.981Z,18.37
2022-08-22T21:18:12.278Z,18.53
2022-08-22T21:20:43.598Z,18.55
2022-08-22T21:23:16.430Z,18.57
2022-08-22T21:25:56.833Z,18.57
2022-08-22T21:28:36.056Z,18.61
2022-08-22T21:31:14.596Z,18.63
2022-08-22T21:33:54.268Z,18.61
2022-08-22T21:36:27.686Z,18.62
2022-08-22T21:39:01.557Z,18.72
2022-08-22T21:41:41.556Z,18.75
2022-08-22T21:44:35.017Z,18.79
2022-08-22T21:47:30.409Z,18.82
2022-08-22T21:50:09.557Z,18.80
2022-08-22T21:52:44.379Z,18.85
2022-08-22T21:55:25.780Z,18.84
2022-08-22T21:58:37.035Z,18.87
2022-08-22T22:01:30.276Z,18.93
2022-08-22T22:04:01.448Z,18.91
2022-08-22T22:06:31.708Z,18.92
2022-08-22T22:09:02.128Z,18.93
2022-08-22T22:11:32.350Z,18.97
2022-08-22T22:14:04.376Z,18.97
2022-08-22T22:16:34.970Z,18.98
2022-08-22T22:19:08.351Z,19.00
2022-08-22T22:21:38.957Z,19.11
2022-08-22T22:24:09.611Z,19.06
2022-08-22T22:26:40.139Z,19.04
2022-08-22T22:29:12.220Z,19.09
2022-08-22T22:31:42.698Z,19.05
2022-08-22T22:34:12.861Z,19.06
2022-08-22T22:36:44.431Z,19.08
2022-08-22T22:39:14.189Z,19.17
2022-08-22T22:41:44.533Z,19.18
2022-08-22T22:44:16.081Z,19.15
2022-08-22T22:46:46.488Z,19.12
2022-08-22T22:49:16.600Z,19.09
2022-08-22T22:51:46.770Z,19.06
2022-08-22T22:54:17.410Z,19.04
2022-08-22T22:56:47.913Z,19.02
2022-08-22T22:59:20.230Z,18.99
2022-08-22T23:02:06.428Z,19.01
2022-08-22T23:04:39.090Z,18.96
2022-08-22T23:07:10.017Z,18.89
2022-08-22T23:09:44.855Z,18.86
2022-08-22T23:12:16.632Z,18.79
2022-08-22T23:14:48.489Z,18.84
2022-08-22T23:17:18.849Z,18.73
2022-08-22T23:19:49.380Z,18.67
2022-08-22T23:22:20.059Z,18.65
2022-08-22T23:24:51.719Z,18.69
2022-08-22T23:27:22.019Z,18.62
2022-08-22T23:29:53.876Z,18.58
2022-08-22T23:32:24.187Z,18.56
2022-08-22T23:34:56.467Z,18.46
2022-08-22T23:37:26.687Z,18.49
2022-08-22T23:39:57.061Z,18.48
2022-08-22T23:42:27.148Z,18.42
2022-08-22T23:44:58.701Z,18.43
2022-08-22T23:47:28.957Z,18.41
2022-08-22T23:49:59.242Z,18.45
2022-08-22T23:52:36.601Z,18.39
2022-08-22T23:55:07.079Z,18.28
2022-08-22T23:57:37.619Z,18.23
